Time;durP1;ratioP1;P1;durP2;ratioP2;P2;SDS_P1;SDS_P2;PMS_P1;PMS_P2;Temp;Humidity;BMP_temperature;BMP_pressure;BME280_temperature;BME280_humidity;BME280_pressure;Samples;Min_cycle;Max_cycle;Signal;HPM_P1;HPM_P2
2024/01/21 00:00:03;;;;;;;44.55;28.98;;;;;;;;;;463053;28;1231;-72
2024/01/21 00:00:19;;;;;;;42.53;28.25;;;;;;;;;;463511;28;1334;-71
2024/01/21 00:00:34;;;;;;;40.95;27.17;;;;;;;;;;464727;28;844;-72
2024/01/21 00:00:50;;;;;;;40.13;26.87;;;;;;;;;;462965;28;1216;-71
2024/01/21 00:01:05;;;;;;;38.55;26.83;;;;;;;;;;464455;28;1430;-71
2024/01/21 00:01:20;;;;;;;42.27;29.47;;;;;;;;;;462749;28;957;-71
2024/01/21 00:01:36;;;;;;;44.27;30.23;;;;;;;;;;461852;29;1065;-71
2024/01/21 00:01:51;;;;;;;42.40;27.98;;;;;;;;;;460547;29;1041;-71
2024/01/21 00:02:06;;;;;;;40.47;26.60;;;;;;;;;;462846;29;1156;-72
2024/01/21 00:02:22;;;;;;;40.17;26.13;;;;;;;;;;464223;28;1289;-71
2024/01/21 00:02:37;;;;;;;41.08;26.83;;;;;;;;;;464759;28;1388;-71
2024/01/21 00:02:53;;;;;;;40.73;26.77;;;;;;;;;;464873;28;1258;-72
2024/01/21 00:03:08;;;;;;;40.38;26.23;;;;;;;;;;467230;28;997;-72
2024/01/21 00:03:24;;;;;;;39.97;25.53;;;;;;;;;;467523;28;995;-71
2024/01/21 00:03:39;;;;;;;38.75;24.90;;;;;;;;;;465652;28;1322;-72
2024/01/21 00:03:56;;;;;;;38.85;25.63;;;;;;;;;;465269;28;945;-71
2024/01/21 00:04:11;;;;;;;39.75;26.27;;;;;;;;;;463466;28;1189;-72
2024/01/21 00:04:27;;;;;;;39.08;25.42;;;;;;;;;;463005;28;1040;-72
2024/01/21 00:04:42;;;;;;;38.93;25.47;;;;;;;;;;464078;28;1233;-71
2024/01/21 00:04:57;;;;;;;39.60;25.13;;;;;;;;;;461750;29;1308;-71
2024/01/21 00:05:13;;;;;;;39.00;24.80;;;;;;;;;;462742;29;1192;-72
2024/01/21 00:05:28;;;;;;;38.97;25.37;;;;;;;;;;461613;29;1292;-71
2024/01/21 00:05:43;;;;;;;41.45;25.85;;;;;;;;;;463534;29;902;-71
2024/01/21 00:05:59;;;;;;;43.97;26.67;;;;;;;;;;462181;29;1261;-72
2024/01/21 00:06:14;;;;;;;43.57;26.80;;;;;;;;;;463675;29;928;-72
2024/01/21 00:06:30;;;;;;;43.28;26.45;;;;;;;;;;461286;29;1175;-72
2024/01/21 00:06:45;;;;;;;41.53;25.87;;;;;;;;;;461779;28;1202;-71
2024/01/21 00:07:00;;;;;;;41.95;26.15;;;;;;;;;;461610;29;1090;-72
2024/01/21 00:07:16;;;;;;;43.70;26.70;;;;;;;;;;463521;28;1337;-71
2024/01/21 00:07:31;;;;;;;42.93;26.70;;;;;;;;;;464790;28;1064;-71
2024/01/21 00:07:46;;;;;;;44.92;27.15;;;;;;;;;;464634;28;923;-71
2024/01/21 00:08:02;;;;;;;49.93;27.97;;;;;;;;;;462411;29;1342;-71
2024/01/21 00:08:17;;;;;;;51.07;27.87;;;;;;;;;;462319;28;1317;-71
2024/01/21 00:08:32;;;;;;;48.35;27.35;;;;;;;;;;461772;29;1252;-71
2024/01/21 00:08:48;;;;;;;47.73;27.37;;;;;;;;;;463050;28;1414;-71
2024/01/21 00:09:03;;;;;;;49.53;27.53;;;;;;;;;;464210;28;875;-71
2024/01/21 00:09:18;;;;;;;47.08;27.13;;;;;;;;;;465997;28;1309;-72
2024/01/21 00:09:33;;;;;;;47.03;27.57;;;;;;;;;;465113;28;1079;-72
2024/01/21 00:09:49;;;;;;;51.03;28.30;;;;;;;;;;463150;28;1152;-71
2024/01/21 00:10:07;;;;;;;55.05;29.10;;;;;;;;;;463301;28;1466;-71
2024/01/21 00:10:22;;;;;;;55.08;29.13;;;;;;;;;;463747;28;1068;-71
2024/01/21 00:10:37;;;;;;;54.00;28.50;;;;;;;;;;465379;28;1206;-71
2024/01/21 00:10:52;;;;;;;57.07;28.40;;;;;;;;;;463253;28;1271;-72
2024/01/21 00:11:08;;;;;;;56.70;28.73;;;;;;;;;;465318;28;947;-71
2024/01/21 00:11:23;;;;;;;50.90;28.83;;;;;;;;;;467702;28;946;-71
2024/01/21 00:11:38;;;;;;;52.17;29.10;;;;;;;;;;465071;28;1231;-71
2024/01/21 00:11:54;;;;;;;54.30;28.73;;;;;;;;;;464569;28;875;-71
2024/01/21 00:12:09;;;;;;;55.43;29.33;;;;;;;;;;463874;28;954;-72
2024/01/21 00:12:25;;;;;;;54.25;29.95;;;;;;;;;;464839;28;899;-71
2024/01/21 00:12:40;;;;;;;51.70;29.20;;;;;;;;;;465751;28;1186;-71
2024/01/21 00:12:55;;;;;;;49.50;28.90;;;;;;;;;;465434;28;1302;-72
2024/01/21 00:13:11;;;;;;;48.35;29.00;;;;;;;;;;466011;28;1044;-71
2024/01/21 00:13:26;;;;;;;49.67;29.27;;;;;;;;;;465116;28;1054;-71
2024/01/21 00:13:41;;;;;;;50.20;28.90;;;;;;;;;;466416;28;863;-71
2024/01/21 00:13:56;;;;;;;49.85;28.40;;;;;;;;;;465964;28;1110;-72
2024/01/21 00:14:12;;;;;;;49.33;28.17;;;;;;;;;;466114;28;1033;-71
2024/01/21 00:14:27;;;;;;;48.63;28.07;;;;;;;;;;466030;28;1187;-72
2024/01/21 00:14:42;;;;;;;50.15;28.67;;;;;;;;;;467451;28;1040;-71
2024/01/21 00:14:58;;;;;;;52.43;29.60;;;;;;;;;;466555;28;979;-71
2024/01/21 00:15:13;;;;;;;52.97;30.53;;;;;;;;;;466302;28;1248;-71
2024/01/21 00:15:29;;;;;;;56.15;31.30;;;;;;;;;;466294;28;1005;-72
2024/01/21 00:15:44;;;;;;;56.07;30.33;;;;;;;;;;466416;28;969;-71
2024/01/21 00:15:59;;;;;;;51.85;29.38;;;;;;;;;;465605;28;906;-71
2024/01/21 00:16:15;;;;;;;50.77;29.53;;;;;;;;;;463760;28;1314;-71
2024/01/21 00:16:30;;;;;;;51.30;29.73;;;;;;;;;;465949;28;910;-71
2024/01/21 00:16:46;;;;;;;49.90;29.00;;;;;;;;;;463617;28;1321;-71
2024/01/21 00:17:02;;;;;;;51.07;29.23;;;;;;;;;;463339;28;1442;-71
2024/01/21 00:17:17;;;;;;;53.30;29.90;;;;;;;;;;464922;28;1411;-71
2024/01/21 00:17:32;;;;;;;51.63;29.13;;;;;;;;;;466517;28;909;-71
2024/01/21 00:17:48;;;;;;;49.93;28.87;;;;;;;;;;465194;28;2125;-71
2024/01/21 00:18:04;;;;;;;49.13;28.73;;;;;;;;;;465586;28;1017;-71
2024/01/21 00:18:19;;;;;;;48.53;28.48;;;;;;;;;;465116;28;1428;-71
2024/01/21 00:18:35;;;;;;;48.30;29.10;;;;;;;;;;462135;28;1088;-71
2024/01/21 00:18:50;;;;;;;50.75;30.17;;;;;;;;;;460507;29;1230;-71
2024/01/21 00:19:06;;;;;;;51.95;29.83;;;;;;;;;;461483;29;981;-71
2024/01/21 00:19:21;;;;;;;51.40;29.67;;;;;;;;;;461927;29;1267;-71
2024/01/21 00:19:36;;;;;;;53.27;30.40;;;;;;;;;;463360;28;896;-71
2024/01/21 00:19:52;;;;;;;54.43;31.43;;;;;;;;;;463408;28;1007;-71
2024/01/21 00:20:07;;;;;;;53.33;31.93;;;;;;;;;;465096;28;966;-71
2024/01/21 00:20:23;;;;;;;49.60;29.90;;;;;;;;;;467083;28;1101;-71
2024/01/21 00:20:38;;;;;;;48.50;28.70;;;;;;;;;;468538;28;1214;-71
2024/01/21 00:20:54;;;;;;;47.13;27.55;;;;;;;;;;468271;28;930;-71
2024/01/21 00:21:09;;;;;;;45.27;27.23;;;;;;;;;;468487;28;1460;-71
2024/01/21 00:21:25;;;;;;;47.85;28.13;;;;;;;;;;466471;28;1217;-71
2024/01/21 00:21:40;;;;;;;49.17;29.03;;;;;;;;;;468551;28;1305;-71
2024/01/21 00:21:55;;;;;;;47.10;29.40;;;;;;;;;;463928;28;1146;-72
2024/01/21 00:22:10;;;;;;;48.30;30.48;;;;;;;;;;465185;28;1237;-71
2024/01/21 00:22:26;;;;;;;50.97;31.37;;;;;;;;;;464202;28;891;-71
2024/01/21 00:22:41;;;;;;;49.47;29.87;;;;;;;;;;464297;28;916;-71
2024/01/21 00:22:57;;;;;;;48.35;28.98;;;;;;;;;;466227;28;1034;-72
2024/01/21 00:23:12;;;;;;;47.42;28.05;;;;;;;;;;464096;28;927;-71
2024/01/21 00:23:28;;;;;;;45.30;27.10;;;;;;;;;;464258;28;1088;-71
2024/01/21 00:23:44;;;;;;;45.60;27.23;;;;;;;;;;465784;28;1244;-71
2024/01/21 00:24:00;;;;;;;45.67;27.45;;;;;;;;;;466366;28;922;-71
2024/01/21 00:24:15;;;;;;;45.47;27.60;;;;;;;;;;464870;28;1097;-72
2024/01/21 00:24:30;;;;;;;43.42;27.13;;;;;;;;;;464356;28;1261;-71
2024/01/21 00:24:46;;;;;;;42.37;26.93;;;;;;;;;;463364;28;1350;-71
2024/01/21 00:25:01;;;;;;;44.60;27.97;;;;;;;;;;464907;28;915;-71
2024/01/21 00:25:16;;;;;;;43.75;27.52;;;;;;;;;;463848;28;968;-71
2024/01/21 00:25:32;;;;;;;41.50;26.87;;;;;;;;;;463947;28;1012;-71
2024/01/21 00:25:47;;;;;;;44.00;28.30;;;;;;;;;;464148;28;848;-71
2024/01/21 00:26:03;;;;;;;46.67;29.30;;;;;;;;;;462440;28;1178;-71
2024/01/21 00:26:18;;;;;;;45.63;28.23;;;;;;;;;;464814;28;1256;-71
2024/01/21 00:26:33;;;;;;;45.53;27.97;;;;;;;;;;466153;28;1284;-71
2024/01/21 00:26:49;;;;;;;45.37;28.40;;;;;;;;;;465150;28;1096;-71
2024/01/21 00:27:04;;;;;;;45.80;29.20;;;;;;;;;;464870;28;1280;-71
2024/01/21 00:27:19;;;;;;;48.07;29.83;;;;;;;;;;465931;28;1328;-71
2024/01/21 00:27:36;;;;;;;48.90;28.92;;;;;;;;;;467431;28;1130;-71
2024/01/21 00:27:51;;;;;;;48.38;28.70;;;;;;;;;;466542;28;1083;-71
2024/01/21 00:28:06;;;;;;;48.47;29.33;;;;;;;;;;467464;28;884;-71
2024/01/21 00:28:22;;;;;;;47.60;28.88;;;;;;;;;;465368;28;1239;-71
2024/01/21 00:28:37;;;;;;;45.87;28.60;;;;;;;;;;462172;28;1082;-71
2024/01/21 00:28:52;;;;;;;45.70;29.03;;;;;;;;;;462719;28;1250;-71
2024/01/21 00:29:08;;;;;;;45.95;28.98;;;;;;;;;;460518;29;1049;-71
2024/01/21 00:29:23;;;;;;;43.63;28.03;;;;;;;;;;459659;29;963;-71
2024/01/21 00:29:38;;;;;;;42.87;27.73;;;;;;;;;;462994;29;1305;-71
2024/01/21 00:29:54;;;;;;;45.33;28.42;;;;;;;;;;461629;29;1085;-71
2024/01/21 00:30:09;;;;;;;44.80;28.23;;;;;;;;;;462931;28;1231;-71
2024/01/21 00:30:24;;;;;;;44.28;27.73;;;;;;;;;;464216;28;1074;-71
2024/01/21 00:30:40;;;;;;;45.87;27.57;;;;;;;;;;463446;28;1103;-71
2024/01/21 00:30:55;;;;;;;46.00;27.80;;;;;;;;;;464820;28;1161;-71
2024/01/21 00:31:11;;;;;;;45.30;27.48;;;;;;;;;;463160;28;866;-71
2024/01/21 00:31:27;;;;;;;45.17;27.00;;;;;;;;;;464738;28;1257;-71
2024/01/21 00:31:42;;;;;;;44.88;27.30;;;;;;;;;;464035;28;891;-71
2024/01/21 00:31:58;;;;;;;44.77;26.90;;;;;;;;;;464832;28;936;-71
2024/01/21 00:32:13;;;;;;;44.30;26.58;;;;;;;;;;463358;28;1204;-71
2024/01/21 00:32:29;;;;;;;43.93;26.83;;;;;;;;;;462349;29;1099;-71
2024/01/21 00:32:44;;;;;;;46.33;27.60;;;;;;;;;;461754;29;904;-71
2024/01/21 00:32:59;;;;;;;47.42;28.42;;;;;;;;;;462490;29;1109;-71
2024/01/21 00:33:14;;;;;;;48.60;28.83;;;;;;;;;;463376;28;1168;-71
2024/01/21 00:33:30;;;;;;;48.70;28.37;;;;;;;;;;464350;28;1066;-71
2024/01/21 00:33:45;;;;;;;48.03;27.98;;;;;;;;;;464920;28;1046;-71
2024/01/21 00:34:01;;;;;;;47.57;27.90;;;;;;;;;;462486;28;1138;-70
2024/01/21 00:34:17;;;;;;;48.40;29.10;;;;;;;;;;464759;28;887;-71
2024/01/21 00:34:32;;;;;;;48.70;29.42;;;;;;;;;;466847;28;1088;-71
2024/01/21 00:34:47;;;;;;;47.73;28.43;;;;;;;;;;463803;28;1231;-71
2024/01/21 00:35:03;;;;;;;48.37;28.17;;;;;;;;;;463899;28;1073;-71
2024/01/21 00:35:18;;;;;;;44.47;26.90;;;;;;;;;;464632;28;1424;-71
2024/01/21 00:35:34;;;;;;;42.67;26.27;;;;;;;;;;464421;28;1032;-71
2024/01/21 00:35:49;;;;;;;47.97;27.83;;;;;;;;;;465545;28;1061;-71
2024/01/21 00:36:05;;;;;;;49.53;28.77;;;;;;;;;;465915;28;1053;-71
2024/01/21 00:36:20;;;;;;;48.33;28.73;;;;;;;;;;465933;28;1307;-71
2024/01/21 00:36:35;;;;;;;49.80;28.60;;;;;;;;;;465918;28;935;-71
2024/01/21 00:36:50;;;;;;;48.63;28.10;;;;;;;;;;468061;28;1196;-71
2024/01/21 00:37:06;;;;;;;47.33;28.03;;;;;;;;;;467355;28;939;-71
2024/01/21 00:37:21;;;;;;;47.00;28.47;;;;;;;;;;467435;28;927;-71
2024/01/21 00:37:37;;;;;;;46.28;28.55;;;;;;;;;;466348;28;1347;-72
2024/01/21 00:37:52;;;;;;;47.30;28.53;;;;;;;;;;461704;28;2023;-71
2024/01/21 00:38:07;;;;;;;46.63;28.05;;;;;;;;;;462770;28;970;-71
2024/01/21 00:38:23;;;;;;;44.83;27.93;;;;;;;;;;460972;29;975;-71
2024/01/21 00:38:41;;;;;;;47.45;28.67;;;;;;;;;;460376;29;927;-71
2024/01/21 00:38:56;;;;;;;45.55;27.55;;;;;;;;;;460560;29;1355;-71
2024/01/21 00:39:12;;;;;;;43.40;27.10;;;;;;;;;;460479;29;1092;-71
2024/01/21 00:39:27;;;;;;;45.47;27.87;;;;;;;;;;461534;29;966;-71
2024/01/21 00:39:42;;;;;;;46.13;27.92;;;;;;;;;;463535;28;1450;-71
2024/01/21 00:39:58;;;;;;;46.97;28.43;;;;;;;;;;464995;28;1088;-71
2024/01/21 00:40:13;;;;;;;46.43;28.43;;;;;;;;;;467112;28;914;-71
2024/01/21 00:40:29;;;;;;;45.72;27.90;;;;;;;;;;467133;28;930;-71
2024/01/21 00:40:44;;;;;;;46.80;27.92;;;;;;;;;;465874;28;883;-71
2024/01/21 00:40:59;;;;;;;46.23;27.37;;;;;;;;;;466184;28;1042;-71
2024/01/21 00:41:15;;;;;;;46.73;27.90;;;;;;;;;;466385;28;1095;-71
2024/01/21 00:41:30;;;;;;;46.13;27.67;;;;;;;;;;466364;28;993;-71
2024/01/21 00:41:46;;;;;;;44.77;26.50;;;;;;;;;;466460;28;1028;-71
2024/01/21 00:42:01;;;;;;;43.78;26.35;;;;;;;;;;464738;28;1437;-71
2024/01/21 00:42:16;;;;;;;43.77;26.47;;;;;;;;;;464299;28;1165;-71
2024/01/21 00:42:32;;;;;;;45.20;26.80;;;;;;;;;;464117;28;1265;-71
2024/01/21 00:42:47;;;;;;;46.17;27.13;;;;;;;;;;464815;28;1198;-71
2024/01/21 00:43:03;;;;;;;47.23;27.53;;;;;;;;;;465577;28;1014;-71
2024/01/21 00:43:18;;;;;;;45.53;27.10;;;;;;;;;;466059;28;1147;-71
2024/01/21 00:43:33;;;;;;;45.07;27.27;;;;;;;;;;466560;28;981;-72
2024/01/21 00:43:49;;;;;;;46.60;27.75;;;;;;;;;;465412;28;1001;-71
2024/01/21 00:44:04;;;;;;;47.10;27.87;;;;;;;;;;464865;28;1193;-71
2024/01/21 00:44:20;;;;;;;47.35;28.05;;;;;;;;;;464312;28;1366;-71
2024/01/21 00:44:36;;;;;;;45.30;27.27;;;;;;;;;;464365;28;1096;-71
2024/01/21 00:44:52;;;;;;;45.95;27.42;;;;;;;;;;464653;28;978;-71
2024/01/21 00:45:07;;;;;;;46.13;27.17;;;;;;;;;;464002;28;951;-71
2024/01/21 00:45:23;;;;;;;44.13;26.27;;;;;;;;;;464180;28;1367;-71
2024/01/21 00:45:38;;;;;;;44.10;26.50;;;;;;;;;;464222;28;1253;-71
2024/01/21 00:45:53;;;;;;;41.93;25.77;;;;;;;;;;461979;28;1332;-71
2024/01/21 00:46:09;;;;;;;42.97;25.67;;;;;;;;;;464202;28;1150;-71
2024/01/21 00:46:24;;;;;;;43.93;26.43;;;;;;;;;;463970;28;1029;-70
2024/01/21 00:46:39;;;;;;;45.25;27.50;;;;;;;;;;464373;28;1385;-71
2024/01/21 00:46:55;;;;;;;47.70;28.43;;;;;;;;;;464795;28;1046;-71
2024/01/21 00:47:10;;;;;;;46.00;27.67;;;;;;;;;;464532;28;905;-71
2024/01/21 00:47:25;;;;;;;45.03;26.98;;;;;;;;;;463384;28;1070;-71
2024/01/21 00:47:41;;;;;;;46.83;27.40;;;;;;;;;;464606;28;915;-71
2024/01/21 00:47:56;;;;;;;47.30;27.43;;;;;;;;;;466653;28;1101;-71
2024/01/21 00:48:11;;;;;;;48.08;28.10;;;;;;;;;;467167;28;1284;-71
2024/01/21 00:48:27;;;;;;;46.10;27.93;;;;;;;;;;464657;28;1368;-71
2024/01/21 00:48:42;;;;;;;47.13;27.97;;;;;;;;;;464937;28;1198;-71
2024/01/21 00:48:59;;;;;;;47.45;28.00;;;;;;;;;;464499;28;1063;-71
2024/01/21 00:49:14;;;;;;;44.33;27.17;;;;;;;;;;464130;28;1530;-71
2024/01/21 00:49:30;;;;;;;42.30;26.80;;;;;;;;;;463820;28;1081;-71
2024/01/21 00:49:46;;;;;;;44.58;28.17;;;;;;;;;;463642;28;1266;-71
2024/01/21 00:50:03;;;;;;;46.80;28.92;;;;;;;;;;463361;28;1197;-71
2024/01/21 00:50:18;;;;;;;45.58;27.95;;;;;;;;;;463258;28;1356;-71
2024/01/21 00:50:33;;;;;;;44.70;26.97;;;;;;;;;;465310;28;939;-71
2024/01/21 00:50:49;;;;;;;43.47;25.67;;;;;;;;;;463326;28;1213;-71
2024/01/21 00:51:04;;;;;;;44.58;25.83;;;;;;;;;;464345;28;1111;-71
2024/01/21 00:51:19;;;;;;;48.40;27.03;;;;;;;;;;463964;28;869;-71
2024/01/21 00:51:35;;;;;;;49.27;27.73;;;;;;;;;;465457;28;1162;-71
2024/01/21 00:51:50;;;;;;;48.35;27.35;;;;;;;;;;467215;28;891;-71
2024/01/21 00:52:05;;;;;;;47.30;27.07;;;;;;;;;;466794;28;998;-71
2024/01/21 00:52:21;;;;;;;45.33;26.45;;;;;;;;;;464905;28;1013;-71
2024/01/21 00:52:36;;;;;;;45.10;26.20;;;;;;;;;;466840;28;1165;-71
2024/01/21 00:52:51;;;;;;;48.23;27.20;;;;;;;;;;466217;28;1265;-71
2024/01/21 00:53:06;;;;;;;53.15;28.00;;;;;;;;;;465109;28;1119;-71
2024/01/21 00:53:22;;;;;;;53.47;27.90;;;;;;;;;;463861;28;936;-71
2024/01/21 00:53:37;;;;;;;52.33;28.10;;;;;;;;;;463639;29;1101;-71
2024/01/21 00:53:52;;;;;;;49.17;27.48;;;;;;;;;;462210;29;1067;-71
2024/01/21 00:54:12;;;;;;;43.83;25.90;;;;;;;;;;294141;28;10001159;-71
2024/01/21 00:54:28;;;;;;;47.07;26.83;;;;;;;;;;463588;28;905;-71
2024/01/21 00:54:43;;;;;;;56.17;29.00;;;;;;;;;;465857;28;1276;-71
2024/01/21 00:54:58;;;;;;;54.00;27.83;;;;;;;;;;464885;28;1082;-71
2024/01/21 00:55:14;;;;;;;55.40;28.17;;;;;;;;;;466424;28;942;-71
2024/01/21 00:55:29;;;;;;;58.17;28.60;;;;;;;;;;465138;28;1131;-71
2024/01/21 00:55:44;;;;;;;53.30;27.37;;;;;;;;;;466250;28;992;-71
2024/01/21 00:56:00;;;;;;;51.00;27.97;;;;;;;;;;464508;28;1161;-71
2024/01/21 00:56:15;;;;;;;50.08;28.25;;;;;;;;;;465577;28;895;-71
2024/01/21 00:56:31;;;;;;;50.20;28.23;;;;;;;;;;467563;28;1255;-71
2024/01/21 00:56:46;;;;;;;47.10;27.90;;;;;;;;;;462536;28;1303;-71
2024/01/21 00:57:02;;;;;;;44.77;26.87;;;;;;;;;;463459;28;1639;-71
2024/01/21 00:57:17;;;;;;;50.67;27.67;;;;;;;;;;463591;28;1292;-71
2024/01/21 00:57:32;;;;;;;53.40;28.23;;;;;;;;;;465003;28;1073;-71
2024/01/21 00:57:48;;;;;;;49.43;27.13;;;;;;;;;;464400;28;2014;-71
2024/01/21 00:58:03;;;;;;;49.22;26.70;;;;;;;;;;462619;28;1233;-71
2024/01/21 00:58:19;;;;;;;54.03;27.47;;;;;;;;;;463846;28;1093;-71
2024/01/21 00:58:34;;;;;;;55.70;28.70;;;;;;;;;;463119;28;1177;-71
2024/01/21 00:58:49;;;;;;;52.87;28.23;;;;;;;;;;464732;28;1031;-71
2024/01/21 00:59:04;;;;;;;50.53;27.20;;;;;;;;;;464682;28;1322;-70
2024/01/21 00:59:20;;;;;;;52.20;28.02;;;;;;;;;;465470;28;962;-71
2024/01/21 00:59:35;;;;;;;52.07;28.23;;;;;;;;;;466239;28;1104;-71
2024/01/21 00:59:50;;;;;;;50.07;27.37;;;;;;;;;;466587;28;1061;-71
2024/01/21 01:00:07;;;;;;;48.60;26.87;;;;;;;;;;468449;28;937;-71
2024/01/21 01:00:25;;;;;;;45.65;26.23;;;;;;;;;;465269;28;1102;-70
2024/01/21 01:00:40;;;;;;;45.42;26.50;;;;;;;;;;465316;28;907;-71
2024/01/21 01:00:56;;;;;;;44.43;26.30;;;;;;;;;;463963;28;1462;-71
2024/01/21 01:01:11;;;;;;;42.77;25.63;;;;;;;;;;464822;28;923;-71
2024/01/21 01:01:27;;;;;;;43.88;25.83;;;;;;;;;;464185;28;911;-71
2024/01/21 01:01:42;;;;;;;51.15;27.23;;;;;;;;;;463584;28;1004;-71
2024/01/21 01:01:58;;;;;;;55.93;28.30;;;;;;;;;;464540;28;1173;-71
2024/01/21 01:02:13;;;;;;;54.00;28.20;;;;;;;;;;465319;28;957;-71
2024/01/21 01:02:28;;;;;;;49.33;27.20;;;;;;;;;;464988;28;1117;-72
2024/01/21 01:02:44;;;;;;;47.73;27.57;;;;;;;;;;466517;28;1205;-71
2024/01/21 01:02:59;;;;;;;48.27;28.17;;;;;;;;;;466336;28;855;-71
2024/01/21 01:03:15;;;;;;;48.17;28.27;;;;;;;;;;465491;28;922;-71
2024/01/21 01:03:30;;;;;;;49.73;28.70;;;;;;;;;;465456;28;1553;-71
2024/01/21 01:03:45;;;;;;;50.28;29.05;;;;;;;;;;461473;29;1169;-71
2024/01/21 01:04:00;;;;;;;50.00;29.03;;;;;;;;;;460618;29;902;-71
2024/01/21 01:04:16;;;;;;;48.93;28.37;;;;;;;;;;461564;28;987;-71
2024/01/21 01:04:32;;;;;;;48.38;28.30;;;;;;;;;;462445;28;1235;-71
2024/01/21 01:04:48;;;;;;;47.50;28.33;;;;;;;;;;462542;29;1216;-71
2024/01/21 01:05:04;;;;;;;49.33;28.38;;;;;;;;;;462962;28;1298;-71
2024/01/21 01:05:19;;;;;;;49.75;28.40;;;;;;;;;;466732;28;1244;-71
2024/01/21 01:05:35;;;;;;;47.53;27.63;;;;;;;;;;462260;28;1132;-71
2024/01/21 01:05:50;;;;;;;46.50;27.38;;;;;;;;;;462550;28;1005;-71
2024/01/21 01:06:05;;;;;;;45.53;26.90;;;;;;;;;;462536;28;953;-71
2024/01/21 01:06:21;;;;;;;47.00;27.77;;;;;;;;;;463139;28;1140;-71
2024/01/21 01:06:36;;;;;;;48.08;28.48;;;;;;;;;;464163;28;1175;-71
2024/01/21 01:06:51;;;;;;;47.20;28.43;;;;;;;;;;464783;28;1048;-71
2024/01/21 01:07:07;;;;;;;47.10;28.03;;;;;;;;;;464577;28;931;-70
2024/01/21 01:07:22;;;;;;;47.17;27.38;;;;;;;;;;463677;28;1039;-71
2024/01/21 01:07:37;;;;;;;48.87;28.37;;;;;;;;;;464542;28;945;-71
2024/01/21 01:07:53;;;;;;;48.33;28.15;;;;;;;;;;462633;29;1333;-71
2024/01/21 01:08:08;;;;;;;51.10;28.10;;;;;;;;;;462893;29;1344;-71
2024/01/21 01:08:23;;;;;;;51.20;28.43;;;;;;;;;;461869;29;861;-71
2024/01/21 01:08:39;;;;;;;48.22;28.25;;;;;;;;;;462102;28;958;-71
2024/01/21 01:08:54;;;;;;;49.80;28.47;;;;;;;;;;464032;28;1117;-71
2024/01/21 01:09:10;;;;;;;50.60;28.10;;;;;;;;;;462793;28;1480;-71
2024/01/21 01:09:25;;;;;;;49.50;28.03;;;;;;;;;;464245;28;1029;-71
2024/01/21 01:09:43;;;;;;;50.53;28.63;;;;;;;;;;464721;28;890;-71
2024/01/21 01:09:59;;;;;;;51.58;28.52;;;;;;;;;;465034;28;998;-71
2024/01/21 01:10:15;;;;;;;51.83;28.47;;;;;;;;;;466106;28;997;-71
2024/01/21 01:10:30;;;;;;;50.50;28.33;;;;;;;;;;466519;28;1247;-71
2024/01/21 01:10:46;;;;;;;47.70;28.30;;;;;;;;;;464713;28;1190;-71
2024/01/21 01:11:01;;;;;;;47.40;28.03;;;;;;;;;;464180;28;1253;-71
2024/01/21 01:11:20;;;;;;;49.08;28.90;;;;;;;;;;464174;28;1117;-71
2024/01/21 01:11:37;;;;;;;49.65;29.00;;;;;;;;;;465534;28;936;-71
2024/01/21 01:11:52;;;;;;;47.75;28.23;;;;;;;;;;464470;28;1028;-71
2024/01/21 01:12:08;;;;;;;47.00;28.57;;;;;;;;;;464429;28;986;-71
2024/01/21 01:12:24;;;;;;;48.72;28.75;;;;;;;;;;463356;28;997;-71
2024/01/21 01:12:40;;;;;;;52.67;29.53;;;;;;;;;;464572;28;1243;-71
2024/01/21 01:12:56;;;;;;;51.88;29.70;;;;;;;;;;463375;28;1292;-71
2024/01/21 01:13:11;;;;;;;51.75;29.38;;;;;;;;;;465360;28;1524;-71
2024/01/21 01:13:26;;;;;;;50.90;28.83;;;;;;;;;;465695;28;1409;-70
2024/01/21 01:13:42;;;;;;;48.60;28.17;;;;;;;;;;464208;28;1076;-71
2024/01/21 01:13:57;;;;;;;45.65;27.42;;;;;;;;;;463620;28;1207;-71
2024/01/21 01:14:12;;;;;;;47.07;27.33;;;;;;;;;;462519;29;1345;-71
2024/01/21 01:14:27;;;;;;;49.97;28.10;;;;;;;;;;465740;28;1080;-71
2024/01/21 01:14:43;;;;;;;50.03;28.98;;;;;;;;;;464553;28;1227;-71
2024/01/21 01:14:58;;;;;;;49.60;29.13;;;;;;;;;;463580;28;926;-71
2024/01/21 01:15:14;;;;;;;49.30;28.95;;;;;;;;;;463625;28;1151;-71
2024/01/21 01:15:29;;;;;;;48.40;28.27;;;;;;;;;;461791;29;1098;-71
2024/01/21 01:15:44;;;;;;;46.93;27.20;;;;;;;;;;460765;29;1142;-71
2024/01/21 01:16:00;;;;;;;47.00;27.60;;;;;;;;;;458617;29;1119;-71
2024/01/21 01:16:15;;;;;;;47.72;28.60;;;;;;;;;;459115;29;923;-71
2024/01/21 01:16:30;;;;;;;48.10;28.73;;;;;;;;;;460600;29;1478;-71
2024/01/21 01:16:46;;;;;;;47.75;28.67;;;;;;;;;;461651;29;994;-71
2024/01/21 01:17:01;;;;;;;47.73;29.17;;;;;;;;;;461166;29;1053;-71
2024/01/21 01:17:16;;;;;;;46.37;28.73;;;;;;;;;;461642;29;1278;-71
2024/01/21 01:17:32;;;;;;;48.35;28.88;;;;;;;;;;462867;28;1569;-71
2024/01/21 01:17:47;;;;;;;51.27;29.57;;;;;;;;;;463670;28;1966;-71
2024/01/21 01:18:03;;;;;;;49.05;29.17;;;;;;;;;;464608;28;1199;-71
2024/01/21 01:18:18;;;;;;;47.60;28.80;;;;;;;;;;466298;28;971;-71
2024/01/21 01:18:33;;;;;;;47.35;28.55;;;;;;;;;;464237;28;1439;-71
2024/01/21 01:18:49;;;;;;;46.27;28.27;;;;;;;;;;463874;28;1335;-71
2024/01/21 01:19:06;;;;;;;46.67;28.10;;;;;;;;;;463104;28;1352;-71
2024/01/21 01:19:21;;;;;;;46.20;27.73;;;;;;;;;;463851;28;1176;-71
2024/01/21 01:19:36;;;;;;;46.72;28.25;;;;;;;;;;465331;28;1224;-71
2024/01/21 01:19:52;;;;;;;46.57;28.43;;;;;;;;;;464034;28;1137;-71
2024/01/21 01:20:08;;;;;;;46.67;28.08;;;;;;;;;;464063;28;1176;-71
2024/01/21 01:20:23;;;;;;;46.70;27.65;;;;;;;;;;464502;28;927;-71
2024/01/21 01:20:38;;;;;;;48.17;28.40;;;;;;;;;;463407;28;943;-71
2024/01/21 01:20:54;;;;;;;46.70;27.83;;;;;;;;;;463490;28;858;-71
2024/01/21 01:21:13;;;;;;;45.78;27.20;;;;;;;;;;464647;28;965;-71
2024/01/21 01:21:28;;;;;;;47.47;27.23;;;;;;;;;;464847;28;1572;-71
2024/01/21 01:21:43;;;;;;;46.63;27.77;;;;;;;;;;466797;28;1391;-71
2024/01/21 01:21:58;;;;;;;45.40;27.50;;;;;;;;;;465329;28;1080;-71
2024/01/21 01:22:14;;;;;;;46.22;27.33;;;;;;;;;;465765;28;1228;-71
2024/01/21 01:22:29;;;;;;;46.90;27.93;;;;;;;;;;465772;28;910;-71
2024/01/21 01:22:44;;;;;;;44.63;26.90;;;;;;;;;;466280;28;1180;-72
2024/01/21 01:23:01;;;;;;;42.53;25.95;;;;;;;;;;465563;28;1397;-71
2024/01/21 01:23:16;;;;;;;43.28;26.27;;;;;;;;;;466415;28;1541;-71
2024/01/21 01:23:31;;;;;;;44.50;27.30;;;;;;;;;;465898;28;1006;-71
2024/01/21 01:23:47;;;;;;;46.80;27.92;;;;;;;;;;465772;28;1171;-71
2024/01/21 01:24:02;;;;;;;47.00;27.87;;;;;;;;;;467303;28;1305;-71
2024/01/21 01:24:19;;;;;;;44.53;27.30;;;;;;;;;;466115;28;1091;-71
2024/01/21 01:24:35;;;;;;;40.95;26.23;;;;;;;;;;465498;28;1193;-71
2024/01/21 01:24:50;;;;;;;41.73;26.30;;;;;;;;;;464791;28;1111;-71
2024/01/21 01:25:06;;;;;;;44.65;26.95;;;;;;;;;;465601;28;1166;-71
2024/01/21 01:25:21;;;;;;;42.23;25.90;;;;;;;;;;463095;28;1079;-71
2024/01/21 01:25:36;;;;;;;42.70;26.02;;;;;;;;;;463738;28;907;-71
2024/01/21 01:25:52;;;;;;;46.60;27.80;;;;;;;;;;465229;28;1124;-71
2024/01/21 01:26:07;;;;;;;45.53;27.53;;;;;;;;;;461661;28;1233;-71
2024/01/21 01:26:23;;;;;;;41.45;25.88;;;;;;;;;;463609;28;1026;-72
2024/01/21 01:26:39;;;;;;;41.55;26.08;;;;;;;;;;465690;28;962;-71
2024/01/21 01:26:54;;;;;;;44.30;27.03;;;;;;;;;;462634;28;1270;-71
2024/01/21 01:27:09;;;;;;;44.38;26.58;;;;;;;;;;463588;28;1011;-71
2024/01/21 01:27:26;;;;;;;44.67;26.47;;;;;;;;;;465320;28;1190;-71
2024/01/21 01:27:41;;;;;;;45.65;27.38;;;;;;;;;;463908;28;1127;-71
2024/01/21 01:27:57;;;;;;;47.13;27.87;;;;;;;;;;463203;28;1020;-71
2024/01/21 01:28:12;;;;;;;48.05;27.95;;;;;;;;;;464407;28;1177;-71
2024/01/21 01:28:27;;;;;;;46.00;27.43;;;;;;;;;;464521;28;891;-71
2024/01/21 01:28:43;;;;;;;44.77;27.07;;;;;;;;;;464827;28;1071;-71
2024/01/21 01:28:58;;;;;;;46.78;27.45;;;;;;;;;;466488;28;1261;-72
2024/01/21 01:29:13;;;;;;;47.10;27.27;;;;;;;;;;466257;28;1289;-71
2024/01/21 01:29:29;;;;;;;46.10;26.70;;;;;;;;;;466120;28;1209;-71
2024/01/21 01:29:44;;;;;;;45.67;26.90;;;;;;;;;;465582;28;1297;-71
2024/01/21 01:30:00;;;;;;;45.75;27.70;;;;;;;;;;463618;28;1205;-71
2024/01/21 01:30:15;;;;;;;45.47;27.53;;;;;;;;;;464048;28;1027;-71
2024/01/21 01:30:30;;;;;;;45.23;27.03;;;;;;;;;;463392;28;1582;-72
2024/01/21 01:30:46;;;;;;;44.88;26.63;;;;;;;;;;465907;28;1098;-71
2024/01/21 01:31:02;;;;;;;43.57;26.27;;;;;;;;;;463618;28;1147;-71
2024/01/21 01:31:18;;;;;;;43.47;26.23;;;;;;;;;;463200;28;895;-71
2024/01/21 01:31:33;;;;;;;45.28;27.27;;;;;;;;;;465202;28;1081;-71
2024/01/21 01:31:48;;;;;;;45.67;27.03;;;;;;;;;;466240;28;1223;-70
2024/01/21 01:32:05;;;;;;;44.20;26.52;;;;;;;;;;465750;28;1480;-70
2024/01/21 01:32:20;;;;;;;45.15;26.77;;;;;;;;;;466618;28;1216;-70
2024/01/21 01:32:36;;;;;;;46.38;27.20;;;;;;;;;;468040;28;1509;-70
2024/01/21 01:32:51;;;;;;;46.37;27.53;;;;;;;;;;465894;28;1135;-70
2024/01/21 01:33:06;;;;;;;46.50;27.58;;;;;;;;;;465112;28;1150;-70